Time;durP1;ratioP1;P1;durP2;ratioP2;P2;SDS_P1;SDS_P2;PMS_P1;PMS_P2;Temp;Humidity;BMP_temperature;BMP_pressure;BME280_temperature;BME280_humidity;BME280_pressure;Samples;Min_cycle;Max_cycle;Signal;HPM_P1;HPM_P2
2022/01/17 00:00:17;;;;;;;5.97;2.30;;;;;;;-3.37;71.01;97197.03;4682744;30;20433;-61
2022/01/17 00:02:44;;;;;;;4.93;2.00;;;;;;;-3.38;70.62;97179.88;4681674;30;20509;-62
2022/01/17 00:05:10;;;;;;;7.53;2.72;;;;;;;-3.37;71.27;97169.31;4667247;30;20046;-61
2022/01/17 00:07:36;;;;;;;3.75;2.20;;;;;;;-3.42;71.31;97164.72;4697529;30;20056;-64
2022/01/17 00:10:03;;;;;;;4.75;2.70;;;;;;;-3.48;71.16;97160.34;4685241;30;20152;-59
2022/01/17 00:12:32;;;;;;;8.40;2.85;;;;;;;-3.57;71.37;97151.22;4700908;30;20058;-61
2022/01/17 00:14:57;;;;;;;5.15;1.92;;;;;;;-3.71;71.23;97137.47;4700645;30;20501;-61
2022/01/17 00:17:31;;;;;;;5.70;2.25;;;;;;;-3.64;71.58;97137.50;4693171;30;20061;-61
2022/01/17 00:20:06;;;;;;;7.70;2.40;;;;;;;-3.63;71.87;97118.38;4665003;30;20042;-61
2022/01/17 00:22:32;;;;;;;6.75;2.28;;;;;;;-3.66;71.72;97114.38;4695019;30;20057;-61
2022/01/17 00:24:58;;;;;;;3.63;2.20;;;;;;;-3.71;72.24;97111.59;4700310;30;20045;-61
2022/01/17 00:27:24;;;;;;;5.47;2.45;;;;;;;-3.70;71.94;97120.97;4675335;30;20141;-61
2022/01/17 00:29:50;;;;;;;6.40;2.80;;;;;;;-3.67;72.26;97110.22;4664738;30;20148;-62
2022/01/17 00:32:15;;;;;;;6.22;1.95;;;;;;;-3.70;71.32;97112.41;4691958;30;20089;-61
2022/01/17 00:34:41;;;;;;;5.03;2.10;;;;;;;-3.63;71.89;97102.03;4700198;30;20056;-61
2022/01/17 00:37:07;;;;;;;7.18;2.30;;;;;;;-3.56;71.17;97102.81;4664680;30;20462;-61
2022/01/17 00:39:32;;;;;;;5.10;2.17;;;;;;;-3.54;71.63;97093.03;4682876;30;20137;-60
2022/01/17 00:41:58;;;;;;;3.80;2.05;;;;;;;-3.57;71.43;97083.88;4692495;30;20090;-61
2022/01/17 00:44:24;;;;;;;7.28;2.35;;;;;;;-3.53;71.14;97071.31;4699866;30;20564;-61
2022/01/17 00:46:51;;;;;;;6.20;2.03;;;;;;;-3.54;71.95;97078.28;4697720;30;20148;-62
2022/01/17 00:49:19;;;;;;;5.65;2.83;;;;;;;-3.48;71.40;97058.56;4699847;30;20064;-60
2022/01/17 00:51:46;;;;;;;4.63;2.28;;;;;;;-3.44;70.83;97052.78;4698313;30;20049;-63
2022/01/17 00:54:12;;;;;;;5.97;2.08;;;;;;;-3.47;70.93;97055.78;4700115;30;20097;-61
2022/01/17 00:56:37;;;;;;;3.72;1.70;;;;;;;-3.43;70.79;97048.38;4693201;30;20093;-62
2022/01/17 00:59:03;;;;;;;2.45;2.00;;;;;;;-3.36;70.28;97038.78;4665688;30;20046;-62
2022/01/17 01:01:29;;;;;;;9.45;1.98;;;;;;;-3.37;70.96;97039.00;4679024;30;20056;-62
2022/01/17 01:03:55;;;;;;;3.95;1.98;;;;;;;-3.31;70.00;97038.19;4698516;30;20513;-61
2022/01/17 01:06:21;;;;;;;3.30;2.35;;;;;;;-3.26;70.17;97035.75;4691985;30;20140;-62
2022/01/17 01:08:47;;;;;;;8.35;2.42;;;;;;;-3.27;70.23;97032.34;4684000;30;20105;-61
2022/01/17 01:11:12;;;;;;;6.38;2.10;;;;;;;-3.34;69.69;97028.22;4698016;30;20112;-61
2022/01/17 01:13:38;;;;;;;9.05;2.22;;;;;;;-3.28;70.16;97010.06;4699937;30;20057;-61
2022/01/17 01:29:04;;;;;;;4.15;2.35;;;;;;;-3.18;69.52;96962.94;4699254;30;20046;-61
2022/01/17 01:31:53;;;;;;;5.55;2.35;;;;;;;-3.19;69.45;96958.78;4697438;30;20422;-61
2022/01/17 01:34:21;;;;;;;3.75;1.85;;;;;;;-3.10;68.90;96951.56;4699003;30;20054;-61
2022/01/17 01:36:48;;;;;;;4.28;1.90;;;;;;;-3.11;68.74;96949.97;4690769;30;20053;-60
2022/01/17 01:39:22;;;;;;;6.63;2.10;;;;;;;-3.16;68.62;96955.78;4664716;30;20537;-62
2022/01/17 01:41:48;;;;;;;3.83;2.15;;;;;;;-3.09;69.02;96951.34;4684046;30;20058;-61
2022/01/17 01:44:16;;;;;;;6.03;2.10;;;;;;;-3.05;68.68;96951.72;4698966;30;20054;-61
2022/01/17 01:46:43;;;;;;;7.65;1.98;;;;;;;-3.01;69.17;96947.69;4693967;30;20072;-61
2022/01/17 01:49:09;;;;;;;5.22;2.10;;;;;;;-3.05;68.42;96939.56;4697290;30;20553;-61
2022/01/17 01:51:34;;;;;;;2.53;1.75;;;;;;;-3.09;68.51;96932.41;4695850;30;20056;-60
2022/01/17 01:54:00;;;;;;;3.13;2.08;;;;;;;-3.09;68.92;96932.41;4663264;30;20055;-61
2022/01/17 01:56:26;;;;;;;3.95;1.80;;;;;;;-3.17;69.03;96925.69;4674162;30;20117;-61
2022/01/17 01:58:52;;;;;;;3.95;1.88;;;;;;;-3.20;68.95;96920.94;4681833;30;20092;-61
2022/01/17 02:01:17;;;;;;;2.72;2.20;;;;;;;-3.16;68.60;96901.34;4687525;30;20136;-60
2022/01/17 02:03:43;;;;;;;3.60;1.98;;;;;;;-3.06;68.51;96900.88;4697707;30;20054;-60
2022/01/17 02:06:09;;;;;;;2.33;1.90;;;;;;;-3.04;68.40;96896.28;4697368;30;20103;-60
2022/01/17 02:08:35;;;;;;;3.85;1.80;;;;;;;-3.13;68.95;96900.94;4697371;30;20081;-62
2022/01/17 02:11:01;;;;;;;4.00;1.70;;;;;;;-3.20;69.29;96902.78;4697357;30;20132;-60
2022/01/17 02:13:27;;;;;;;3.38;1.63;;;;;;;-3.25;69.11;96889.66;4698926;30;20184;-61
2022/01/17 02:16:03;;;;;;;5.20;2.22;;;;;;;-3.33;69.41;96875.16;4698461;30;20045;-63
2022/01/17 02:18:31;;;;;;;4.45;1.60;;;;;;;-3.31;69.40;96862.81;4666296;30;20203;-60
2022/01/17 02:21:18;;;;;;;4.40;1.60;;;;;;;-3.24;68.82;96862.75;4684796;30;20054;-60
2022/01/17 02:23:47;;;;;;;3.35;1.80;;;;;;;-3.22;68.96;96852.97;4698955;30;20513;-60
2022/01/17 02:26:15;;;;;;;6.95;2.53;;;;;;;-3.21;68.81;96844.19;4693599;30;20050;-62
2022/01/17 02:28:47;;;;;;;3.22;1.80;;;;;;;-3.23;68.05;96841.03;4698909;30;20080;-60
2022/01/17 02:31:13;;;;;;;6.15;2.10;;;;;;;-3.24;68.88;96837.63;4698204;30;20158;-62
2022/01/17 02:33:39;;;;;;;5.68;1.92;;;;;;;-3.15;68.21;96839.97;4698339;30;20145;-60
2022/01/17 02:36:05;;;;;;;3.97;1.60;;;;;;;-3.15;68.89;96832.97;4696933;30;20462;-59
2022/01/17 02:38:31;;;;;;;5.15;1.85;;;;;;;-3.00;67.81;96827.47;4664734;30;20060;-61
2022/01/17 02:40:57;;;;;;;4.07;1.60;;;;;;;-3.07;68.24;96817.16;4666059;30;20104;-60
2022/01/17 02:43:24;;;;;;;4.03;1.73;;;;;;;-3.05;67.71;96816.97;4698729;30;20064;-61
2022/01/17 02:48:20;;;;;;;5.85;2.17;;;;;;;-2.94;67.88;96790.34;4697577;30;20140;-59
2022/01/17 02:50:46;;;;;;;4.45;2.03;;;;;;;-2.91;67.30;96789.09;4697088;30;20056;-61
2022/01/17 02:53:13;;;;;;;4.43;1.98;;;;;;;-2.93;67.60;96772.97;4698235;30;20140;-60
2022/01/17 02:55:46;;;;;;;10.02;2.45;;;;;;;-2.95;67.48;96778.38;4698315;30;20500;-61
2022/01/17 02:58:12;;;;;;;3.25;2.00;;;;;;;-2.92;67.19;96775.34;4693452;30;20053;-61
2022/01/17 03:00:39;;;;;;;4.25;2.10;;;;;;;-2.83;67.38;96771.44;4698836;30;20132;-62
2022/01/17 03:03:05;;;;;;;6.63;1.88;;;;;;;-2.81;67.32;96772.03;4700119;30;20061;-60
2022/01/17 03:05:30;;;;;;;3.08;1.85;;;;;;;-2.85;67.55;96762.34;4690000;30;20061;-60
2022/01/17 03:07:56;;;;;;;3.10;1.88;;;;;;;-2.92;67.32;96764.97;4688540;30;20131;-61
2022/01/17 03:10:36;;;;;;;5.85;1.88;;;;;;;-2.93;67.51;96757.44;4671917;30;20113;-61
2022/01/17 03:13:04;;;;;;;5.22;2.47;;;;;;;-2.90;67.38;96765.56;4700269;30;20053;-61
2022/01/17 03:15:30;;;;;;;4.80;1.80;;;;;;;-2.91;66.91;96758.81;4701389;30;20058;-61
2022/01/17 03:17:56;;;;;;;4.50;1.75;;;;;;;-2.85;66.97;96744.19;4694423;30;20097;-60
2022/01/17 03:20:21;;;;;;;3.92;1.73;;;;;;;-2.84;67.29;96745.75;4701212;30;20056;-61
2022/01/17 03:22:47;;;;;;;2.75;1.95;;;;;;;-2.90;67.66;96739.63;4699926;30;20050;-61
2022/01/17 03:25:13;;;;;;;9.13;1.95;;;;;;;-2.98;67.80;96730.34;4697569;30;20089;-62
2022/01/17 03:27:39;;;;;;;5.60;1.70;;;;;;;-2.84;67.43;96725.81;4691334;30;20148;-60
2022/01/17 03:30:06;;;;;;;4.00;2.30;;;;;;;-2.86;67.84;96720.03;4701098;30;20414;-63
2022/01/17 03:32:31;;;;;;;10.52;2.03;;;;;;;-2.83;67.65;96726.59;4699410;30;20107;-60
2022/01/17 03:34:57;;;;;;;5.20;2.00;;;;;;;-2.87;67.05;96718.47;4701189;30;20057;-60
2022/01/17 03:37:23;;;;;;;9.50;2.30;;;;;;;-2.86;67.09;96714.84;4695273;30;20045;-61
2022/01/17 03:39:49;;;;;;;8.85;2.00;;;;;;;-2.99;67.40;96707.25;4701034;30;20134;-60
2022/01/17 03:42:18;;;;;;;3.78;1.77;;;;;;;-3.00;68.21;96696.09;4693408;30;20413;-60
2022/01/17 03:44:44;;;;;;;3.58;2.05;;;;;;;-2.99;67.64;96695.06;4685426;30;20232;-61
2022/01/17 03:47:10;;;;;;;5.13;2.03;;;;;;;-2.97;68.19;96684.50;4699512;30;20057;-60
2022/01/17 03:49:35;;;;;;;5.45;2.63;;;;;;;-2.81;67.80;96678.72;4700932;30;20239;-61
2022/01/17 03:52:02;;;;;;;2.47;1.60;;;;;;;-2.93;67.20;96667.50;4699526;30;20061;-62
2022/01/17 03:54:28;;;;;;;3.92;2.10;;;;;;;-2.88;67.70;96659.03;4700516;30;20140;-62
2022/01/17 03:56:53;;;;;;;2.03;1.70;;;;;;;-3.01;67.90;96662.59;4694960;30;20132;-60
2022/01/17 03:59:19;;;;;;;2.65;2.13;;;;;;;-3.14;68.52;96670.53;4697853;30;20045;-62
2022/01/17 04:01:45;;;;;;;4.90;2.10;;;;;;;-3.05;68.12;96666.66;4670809;30;20046;-59
2022/01/17 04:04:11;;;;;;;3.88;1.90;;;;;;;-2.91;67.20;96662.06;4700844;30;20450;-61
2022/01/17 04:06:37;;;;;;;3.50;2.10;;;;;;;-2.88;68.10;96653.88;4688105;30;20403;-62
2022/01/17 04:09:02;;;;;;;5.28;2.60;;;;;;;-2.85;67.55;96649.06;4684935;30;20049;-60
2022/01/17 04:11:28;;;;;;;3.95;1.85;;;;;;;-2.95;67.07;96627.25;4698616;30;20069;-61
2022/01/17 04:13:54;;;;;;;3.95;1.95;;;;;;;-3.10;67.51;96606.91;4685160;30;20142;-60
2022/01/17 04:16:20;;;;;;;5.03;2.22;;;;;;;-2.85;67.29;96617.16;4680606;30;20087;-60
2022/01/17 04:18:46;;;;;;;5.28;2.15;;;;;;;-2.71;67.22;96615.16;4699797;30;20183;-61
2022/01/17 04:21:12;;;;;;;10.15;2.35;;;;;;;-2.68;66.47;96605.13;4700559;30;20054;-59
2022/01/17 04:23:38;;;;;;;7.93;2.00;;;;;;;-2.63;66.81;96604.50;4698963;30;20045;-61
2022/01/17 04:26:03;;;;;;;5.28;2.20;;;;;;;-2.67;66.82;96593.78;4689521;30;20141;-59
2022/01/17 04:28:30;;;;;;;6.72;2.47;;;;;;;-2.71;67.19;96581.47;4697909;30;20510;-60
2022/01/17 04:30:56;;;;;;;7.70;2.50;;;;;;;-2.66;66.83;96587.56;4699103;30;20079;-62
2022/01/17 04:33:22;;;;;;;4.90;1.90;;;;;;;-2.67;67.48;96582.63;4699822;30;20532;-60
2022/01/17 04:35:48;;;;;;;5.85;2.22;;;;;;;-2.84;68.09;96575.44;4687930;30;20057;-60
2022/01/17 04:38:17;;;;;;;6.78;2.35;;;;;;;-2.78;68.74;96577.16;4694504;30;20050;-61
2022/01/17 04:40:46;;;;;;;6.50;2.13;;;;;;;-2.80;69.33;96566.22;4700234;30;20073;-61
2022/01/17 04:43:20;;;;;;;3.60;2.10;;;;;;;-2.90;69.99;96568.56;4696961;30;20054;-60
2022/01/17 04:45:48;;;;;;;7.97;2.45;;;;;;;-2.81;70.11;96567.22;4681745;30;20042;-62
2022/01/17 04:48:14;;;;;;;7.25;2.53;;;;;;;-2.82;70.11;96562.28;4680635;30;20054;-59
2022/01/17 04:50:40;;;;;;;6.13;3.10;;;;;;;-2.87;70.11;96556.97;4665732;30;20058;-61
2022/01/17 04:53:07;;;;;;;7.28;2.53;;;;;;;-2.94;70.26;96545.88;4689178;30;20076;-61
2022/01/17 04:55:35;;;;;;;3.50;2.50;;;;;;;-2.84;70.87;96553.94;4690147;30;20469;-62
2022/01/17 04:58:02;;;;;;;6.05;2.40;;;;;;;-3.00;70.42;96543.19;4693496;30;20119;-60
2022/01/17 05:00:28;;;;;;;5.80;2.30;;;;;;;-2.95;71.52;96539.91;4698387;30;20050;-62
2022/01/17 05:02:54;;;;;;;4.22;2.15;;;;;;;-2.91;71.10;96542.84;4698236;30;20060;-61
2022/01/17 05:05:21;;;;;;;5.60;2.45;;;;;;;-2.92;71.12;96533.50;4699527;30;20060;-59
2022/01/17 05:07:46;;;;;;;3.80;2.20;;;;;;;-2.95;71.31;96523.56;4699310;30;20061;-59
2022/01/17 05:10:15;;;;;;;4.30;2.30;;;;;;;-2.90;70.71;96521.13;4698511;30;20056;-59
2022/01/17 05:12:41;;;;;;;5.85;2.50;;;;;;;-2.91;70.92;96520.34;4683398;30;20176;-59
2022/01/17 05:18:00;;;;;;;;;;;;;;;-3.02;71.51;96505.53;4692517;30;20057;-60
2022/01/17 05:20:26;;;;;;;6.10;2.28;;;;;;;-3.04;71.92;96510.13;4684651;30;19935;-59
2022/01/17 05:22:53;;;;;;;7.25;2.60;;;;;;;-2.97;71.75;96510.84;4691419;30;20053;-60
2022/01/17 05:25:19;;;;;;;8.23;2.78;;;;;;;-3.02;71.78;96495.16;4685258;30;20038;-60
2022/01/17 05:27:44;;;;;;;5.68;2.47;;;;;;;-3.01;72.00;96489.75;4681925;30;20097;-59
2022/01/17 05:30:13;;;;;;;4.25;2.10;;;;;;;-3.15;71.87;96483.16;4681980;30;20568;-60
2022/01/17 05:32:40;;;;;;;6.53;2.63;;;;;;;-3.12;72.45;96476.75;4690329;30;20065;-58
2022/01/17 05:35:06;;;;;;;5.38;3.15;;;;;;;-3.06;73.29;96478.47;4693661;30;20050;-60
2022/01/17 05:37:33;;;;;;;5.25;2.42;;;;;;;-3.13;72.63;96485.56;4689601;30;20099;-62
2022/01/17 05:39:59;;;;;;;4.60;2.38;;;;;;;-3.03;72.66;96476.25;4699312;30;20049;-59
2022/01/17 05:42:26;;;;;;;4.93;2.42;;;;;;;-3.04;71.96;96472.06;4683304;30;20053;-62
2022/01/17 05:44:55;;;;;;;7.88;2.95;;;;;;;-3.10;72.82;96472.16;4655955;30;20050;-61
2022/01/17 05:47:20;;;;;;;4.32;2.90;;;;;;;-3.09;73.34;96456.41;4698782;30;20065;-60
2022/01/17 05:49:46;;;;;;;4.20;2.40;;;;;;;-3.23;73.14;96449.81;4683355;30;20068;-61
2022/01/17 05:52:12;;;;;;;5.03;2.70;;;;;;;-3.10;72.91;96441.84;4683122;30;20509;-62
2022/01/17 05:54:39;;;;;;;10.27;2.65;;;;;;;-3.09;72.76;96435.66;4696373;30;20064;-62
2022/01/17 05:57:06;;;;;;;3.08;2.15;;;;;;;-3.02;73.12;96428.56;4677624;30;20711;-59
2022/01/17 05:59:32;;;;;;;7.40;2.47;;;;;;;-2.88;73.89;96415.38;4690064;30;20049;-59
2022/01/17 06:01:58;;;;;;;4.18;2.40;;;;;;;-2.83;72.45;96402.56;4682384;30;20133;-59
2022/01/17 06:04:24;;;;;;;8.07;3.35;;;;;;;-2.94;72.24;96386.00;4687498;30;20401;-61
2022/01/17 06:06:50;;;;;;;4.40;2.72;;;;;;;-3.00;72.38;96366.94;4682346;30;20145;-59
2022/01/17 06:09:16;;;;;;;6.90;2.35;;;;;;;-3.00;73.12;96355.78;4681252;30;20077;-59
2022/01/17 06:11:42;;;;;;;5.00;2.55;;;;;;;-2.92;73.54;96357.25;4676945;30;20054;-59
2022/01/17 06:14:09;;;;;;;5.28;2.40;;;;;;;-2.97;72.94;96340.59;4678681;30;20394;-62
2022/01/17 06:16:36;;;;;;;6.70;2.58;;;;;;;-2.97;72.77;96332.81;4671068;30;20057;-60
2022/01/17 06:19:03;;;;;;;5.90;3.20;;;;;;;-2.95;73.16;96386.22;4694694;30;20061;-62
2022/01/17 06:21:29;;;;;;;4.68;2.65;;;;;;;-2.96;73.24;96403.56;4684378;30;20564;-62
2022/01/17 06:23:55;;;;;;;4.70;2.65;;;;;;;-2.97;72.93;96426.09;4686124;30;20050;-61
2022/01/17 06:26:21;;;;;;;8.88;2.83;;;;;;;-2.82;73.92;96479.31;4670791;30;20056;-63
2022/01/17 06:28:47;;;;;;;5.20;2.50;;;;;;;-2.77;72.03;96484.59;4679073;30;20050;-60
2022/01/17 06:31:13;;;;;;;11.43;2.83;;;;;;;-2.81;73.85;96494.63;4673654;30;20046;-62
2022/01/17 06:33:39;;;;;;;8.05;3.33;;;;;;;-2.65;72.98;96493.19;4689050;30;20426;-59
2022/01/17 06:36:05;;;;;;;8.35;3.10;;;;;;;-2.56;72.64;96455.56;4677643;30;20333;-61
2022/01/17 06:38:31;;;;;;;9.02;3.63;;;;;;;-2.58;72.74;96429.06;4691472;30;20464;-61
2022/01/17 06:40:57;;;;;;;5.65;2.72;;;;;;;-2.54;72.70;96404.22;4693964;30;20060;-59
2022/01/17 06:43:22;;;;;;;8.45;3.13;;;;;;;-2.57;72.12;96383.94;4694201;30;20114;-60
2022/01/17 06:45:48;;;;;;;5.75;3.20;;;;;;;-2.66;72.27;96345.63;4694203;30;20081;-63
2022/01/17 06:48:14;;;;;;;6.75;3.13;;;;;;;-2.64;73.02;96330.63;4696966;30;20145;-61
2022/01/17 06:50:39;;;;;;;5.00;3.20;;;;;;;-2.64;72.83;96325.44;4696288;30;20546;-61
2022/01/17 06:53:05;;;;;;;6.82;3.17;;;;;;;-2.49;72.28;96312.00;4695856;30;20540;-60
2022/01/17 06:55:31;;;;;;;9.13;3.63;;;;;;;-2.54;72.12;96320.47;4692368;30;20057;-59
2022/01/17 06:57:57;;;;;;;6.57;3.30;;;;;;;-2.62;73.58;96326.81;4676233;30;20053;-59
2022/01/17 07:00:23;;;;;;;7.47;3.70;;;;;;;-2.54;72.76;96318.66;4680656;30;20116;-59
2022/01/17 07:02:49;;;;;;;8.20;3.67;;;;;;;-2.49;73.10;96309.41;4682535;30;20066;-60
2022/01/17 07:05:15;;;;;;;6.60;3.80;;;;;;;-2.46;72.34;96299.34;4671633;30;20046;-59
2022/01/17 07:07:40;;;;;;;10.70;4.28;;;;;;;-2.39;71.91;96305.19;4675789;30;20125;-61
2022/01/17 07:10:06;;;;;;;7.25;3.50;;;;;;;-2.35;72.59;96310.72;4678332;30;20057;-60
2022/01/17 07:12:36;;;;;;;8.30;3.75;;;;;;;-2.38;72.42;96324.94;4681027;30;20057;-61
2022/01/17 07:15:05;;;;;;;7.07;3.45;;;;;;;-2.23;72.48;96339.22;4674261;30;20856;-62
2022/01/17 07:17:31;;;;;;;7.75;3.83;;;;;;;-2.25;73.17;96320.50;4674246;30;20453;-61
2022/01/17 07:19:57;;;;;;;7.18;3.58;;;;;;;-2.26;72.50;96314.53;4661299;30;20051;-62
2022/01/17 07:22:23;;;;;;;7.07;3.90;;;;;;;-2.15;73.09;96305.91;4668688;30;20084;-60
2022/01/17 07:24:49;;;;;;;9.70;3.95;;;;;;;-2.14;72.48;96317.88;4675913;30;20548;-62
2022/01/17 07:27:15;;;;;;;8.18;3.95;;;;;;;-2.04;72.19;96327.66;4673655;30;20462;-61
2022/01/17 07:29:42;;;;;;;8.20;3.97;;;;;;;-2.04;71.99;96311.28;4668751;30;20113;-61
2022/01/17 07:32:09;;;;;;;8.85;4.30;;;;;;;-2.03;71.95;96295.47;4669222;30;20084;-58
2022/01/17 07:34:35;;;;;;;6.32;4.07;;;;;;;-1.87;72.26;96299.13;4678676;30;20502;-60
2022/01/17 07:37:01;;;;;;;9.80;4.18;;;;;;;-1.81;71.10;96298.19;4670757;30;20054;-61
2022/01/17 07:39:27;;;;;;;15.10;4.82;;;;;;;-1.82;70.87;96275.88;4646653;30;20667;-61
2022/01/17 07:41:53;;;;;;;9.88;4.32;;;;;;;-1.94;71.25;96288.09;4662684;30;20684;-61
2022/01/17 07:44:23;;;;;;;6.57;3.97;;;;;;;-1.79;71.42;96257.22;4661178;30;20525;-62
2022/01/17 07:46:54;;;;;;;8.00;4.22;;;;;;;-1.76;70.77;96232.59;4670475;30;20119;-61
2022/01/17 07:49:21;;;;;;;8.82;4.57;;;;;;;-1.85;71.48;96253.75;4695725;30;20157;-60
2022/01/17 07:52:00;;;;;;;9.63;4.60;;;;;;;-1.88;70.91;96249.03;4684819;30;20288;-57
2022/01/17 07:54:28;;;;;;;9.68;4.47;;;;;;;-1.87;71.27;96231.63;4661969;30;20054;-57
2022/01/17 07:56:56;;;;;;;7.60;4.03;;;;;;;-1.89;70.62;96229.25;4666841;30;20413;-59
2022/01/17 07:59:22;;;;;;;10.50;4.15;;;;;;;-1.76;71.77;96246.34;4658358;30;20038;-61
2022/01/17 08:01:48;;;;;;;7.47;4.00;;;;;;;-1.79;70.25;96231.25;4670040;30;20473;-59
2022/01/17 08:04:14;;;;;;;16.88;4.30;;;;;;;-1.76;69.91;96223.00;4695030;30;20049;-62
2022/01/17 08:06:40;;;;;;;8.48;4.00;;;;;;;-1.69;70.33;96222.81;4686678;30;20107;-61
2022/01/17 08:09:25;;;;;;;10.80;5.43;;;;;;;-1.87;69.97;96221.25;4697793;30;20521;-62
2022/01/17 08:11:52;;;;;;;8.35;4.40;;;;;;;-1.87;69.80;96213.47;4667782;30;20581;-60
2022/01/17 08:14:29;;;;;;;9.63;4.90;;;;;;;-1.90;71.00;96222.50;4658662;30;20100;-63
2022/01/17 08:17:04;;;;;;;8.98;4.88;;;;;;;-1.68;71.22;96234.78;4656888;30;20085;-60
2022/01/17 08:19:37;;;;;;;10.70;4.80;;;;;;;-1.70;69.73;96213.47;4681125;30;20136;-61
2022/01/17 08:22:05;;;;;;;10.85;4.90;;;;;;;-1.69;69.28;96220.22;4665714;30;20065;-61
2022/01/17 08:24:31;;;;;;;12.70;4.85;;;;;;;-1.70;69.97;96224.63;4676941;30;20129;-61
2022/01/17 08:26:58;;;;;;;13.80;4.80;;;;;;;-1.65;69.65;96227.31;4695201;30;20045;-61
2022/01/17 08:29:28;;;;;;;11.23;5.18;;;;;;;-1.65;69.37;96231.69;4677358;30;20050;-62
2022/01/17 08:31:55;;;;;;;9.18;4.70;;;;;;;-1.83;68.75;96214.56;4662125;30;20060;-60
2022/01/17 08:34:23;;;;;;;7.70;3.78;;;;;;;-1.91;69.26;96225.31;4689635;30;20098;-64
2022/01/17 08:36:49;;;;;;;7.53;4.18;;;;;;;-1.92;69.44;96224.53;4666613;30;22648;-62
2022/01/17 08:39:15;;;;;;;10.55;5.55;;;;;;;-1.88;69.63;96228.25;4685661;30;20078;-59
2022/01/17 08:41:42;;;;;;;10.32;5.30;;;;;;;-1.85;69.75;96216.63;4664297;30;20073;-62
2022/01/17 08:44:12;;;;;;;14.15;5.13;;;;;;;-1.80;69.56;96214.06;4666001;30;20052;-59
2022/01/17 08:46:38;;;;;;;8.77;4.53;;;;;;;-1.87;68.96;96197.88;4664729;30;20046;-60
2022/01/17 08:49:05;;;;;;;10.88;4.53;;;;;;;-1.80;68.67;96198.50;4698470;30;20297;-60
2022/01/17 08:51:31;;;;;;;12.13;5.32;;;;;;;-1.73;69.27;96193.94;4684728;30;20052;-61
2022/01/17 08:53:56;;;;;;;10.45;5.35;;;;;;;-1.72;68.32;96195.50;4675859;30;20046;-63
2022/01/17 08:56:22;;;;;;;11.18;5.05;;;;;;;-1.72;69.60;96190.31;4678678;30;20064;-62
2022/01/17 08:58:48;;;;;;;10.35;4.97;;;;;;;-1.63;68.82;96180.31;4665059;30;20113;-61
2022/01/17 09:01:14;;;;;;;9.63;4.88;;;;;;;-1.58;68.42;96177.81;4660380;30;20488;-61
2022/01/17 09:03:43;;;;;;;13.07;4.97;;;;;;;-1.56;68.42;96161.97;4672180;30;20086;-62
2022/01/17 09:06:09;;;;;;;9.70;4.45;;;;;;;-1.53;68.26;96162.28;4661252;30;20112;-63
2022/01/17 09:08:34;;;;;;;11.93;5.88;;;;;;;-1.54;68.15;96157.31;4679184;30;20069;-60
2022/01/17 09:11:00;;;;;;;14.02;5.57;;;;;;;-1.61;68.44;96163.47;4678146;30;20088;-62
2022/01/17 09:13:26;;;;;;;14.98;5.70;;;;;;;-1.62;68.47;96163.69;4683922;30;20058;-61
2022/01/17 09:15:53;;;;;;;15.43;5.00;;;;;;;-1.53;69.10;96158.88;4676386;30;20129;-62
2022/01/17 09:18:20;;;;;;;11.40;4.82;;;;;;;-1.48;69.56;96161.56;4674027;30;20215;-61
2022/01/17 09:20:47;;;;;;;11.43;5.40;;;;;;;-1.51;69.36;96156.84;4662694;30;20149;-62
2022/01/17 09:23:13;;;;;;;13.57;5.43;;;;;;;-1.47;69.04;96157.94;4668687;30;20054;-62
2022/01/17 09:25:39;;;;;;;11.90;5.43;;;;;;;-1.47;68.92;96156.13;4675324;30;20101;-60
2022/01/17 09:28:04;;;;;;;13.73;5.70;;;;;;;-1.55;68.70;96151.34;4687804;30;20061;-60
2022/01/17 09:30:30;;;;;;;13.13;5.63;;;;;;;-1.41;69.19;96154.41;4680823;30;20417;-62
2022/01/17 09:32:56;;;;;;;14.32;5.93;;;;;;;-1.44;69.37;96155.66;4668740;30;20065;-62
2022/01/17 09:35:23;;;;;;;10.48;5.45;;;;;;;-1.46;69.77;96147.31;4675460;30;20421;-62
2022/01/17 09:37:49;;;;;;;12.82;5.65;;;;;;;-1.41;70.12;96147.38;4673023;30;20061;-61
2022/01/17 09:40:15;;;;;;;12.95;5.78;;;;;;;-1.44;69.92;96139.25;4694896;30;20054;-60
2022/01/17 09:42:41;;;;;;;10.50;6.18;;;;;;;-1.42;69.72;96127.59;4697649;30;20148;-62
2022/01/17 09:45:13;;;;;;;11.48;6.28;;;;;;;-1.41;70.39;96124.00;4695001;30;20173;-60
2022/01/17 09:47:40;;;;;;;13.70;5.70;;;;;;;-1.40;70.29;96122.97;4692934;30;20121;-59
2022/01/17 09:50:11;;;;;;;13.02;6.20;;;;;;;-1.47;70.41;96118.97;4661885;30;20037;-61
2022/01/17 09:52:43;;;;;;;8.90;5.88;;;;;;;-1.32;70.04;96110.56;4678466;30;20121;-61
2022/01/17 09:55:22;;;;;;;11.35;5.72;;;;;;;-1.15;69.39;96116.50;4666091;30;20568;-60
2022/01/17 09:57:54;;;;;;;10.73;6.13;;;;;;;-1.28;70.00;96101.28;4682690;30;20045;-59
2022/01/17 10:00:26;;;;;;;10.38;5.88;;;;;;;-1.42;69.86;96108.63;4680463;30;20053;-60
2022/01/17 10:02:53;;;;;;;12.02;6.13;;;;;;;-1.30;70.15;96098.13;4675664;30;20085;-59
2022/01/17 10:05:20;;;;;;;14.90;6.53;;;;;;;-1.31;69.31;96102.53;4675215;30;20050;-61
2022/01/17 10:08:01;;;;;;;13.07;5.78;;;;;;;-1.37;69.46;96098.31;4677255;30;20061;-59
2022/01/17 10:10:50;;;;;;;15.65;6.47;;;;;;;-1.27;69.60;96090.63;4672400;30;20472;-62
2022/01/17 10:13:21;;;;;;;11.48;6.00;;;;;;;-1.07;69.58;96082.28;4675710;30;20237;-58
2022/01/17 10:16:00;;;;;;;15.98;6.10;;;;;;;-0.97;68.98;96085.00;4677345;30;20274;-61
2022/01/17 10:18:30;;;;;;;12.18;6.07;;;;;;;-1.03;68.50;96079.97;4676957;30;20064;-59
2022/01/17 10:21:02;;;;;;;13.47;6.43;;;;;;;-1.15;69.30;96074.91;4672648;30;20505;-57
2022/01/17 10:23:43;;;;;;;16.92;6.70;;;;;;;-1.14;68.96;96073.91;4665696;30;20309;-61
2022/01/17 10:26:48;;;;;;;16.48;6.63;;;;;;;-1.32;68.74;96066.41;4677047;30;20432;-59
2022/01/17 10:36:56;;;;;;;13.88;6.65;;;;;;;-1.15;70.13;96046.31;4653673;30;20058;-59
2022/01/17 10:39:23;;;;;;;16.63;6.00;;;;;;;-1.19;70.71;96040.84;4694251;30;20144;-61
2022/01/17 10:42:19;;;;;;;14.90;7.13;;;;;;;-1.09;69.91;96040.13;4676120;30;20152;-60
2022/01/17 10:45:55;;;;;;;14.30;7.00;;;;;;;-0.99;70.30;96047.28;4646287;30;20103;-60
2022/01/17 10:48:28;;;;;;;14.50;6.90;;;;;;;-0.92;70.04;96045.25;4671970;30;20218;-59
2022/01/17 10:50:54;;;;;;;14.68;6.28;;;;;;;-0.93;68.82;96043.69;4663322;30;20128;-59
2022/01/17 10:53:20;;;;;;;11.38;6.60;;;;;;;-0.99;68.64;96022.06;4687751;30;20049;-59
2022/01/17 10:55:55;;;;;;;16.08;7.07;;;;;;;-1.06;69.45;96026.69;4707633;30;20054;-58
2022/01/17 10:58:25;;;;;;;12.75;7.22;;;;;;;-1.12;70.08;96022.44;4691470;30;20568;-59
2022/01/17 11:00:59;;;;;;;14.55;7.07;;;;;;;-1.23;70.36;96018.19;4678853;30;20587;-59
2022/01/17 11:04:09;;;;;;;17.20;7.25;;;;;;;-1.31;70.48;96019.41;4691902;30;20044;-57
2022/01/17 11:06:49;;;;;;;16.52;7.78;;;;;;;-1.27;70.77;96020.47;4690779;30;20073;-60
2022/01/17 11:09:17;;;;;;;16.08;7.13;;;;;;;-1.10;71.30;96015.19;4670854;30;20065;-58
2022/01/17 11:11:47;;;;;;;18.13;7.50;;;;;;;-1.27;70.60;96017.09;4678323;30;20096;-60
2022/01/17 11:14:14;;;;;;;15.30;7.10;;;;;;;-1.22;71.06;96012.72;4690978;30;20054;-62
2022/01/17 11:16:40;;;;;;;15.98;7.78;;;;;;;-1.15;70.55;96023.75;4688147;30;20057;-61
2022/01/17 11:21:51;;;;;;;16.15;8.13;;;;;;;-1.02;71.01;96003.56;4668134;30;20057;-59
2022/01/17 11:24:16;;;;;;;15.38;6.88;;;;;;;-1.06;70.41;96003.28;4697952;30;20117;-61
2022/01/17 11:26:42;;;;;;;15.93;8.23;;;;;;;-1.06;71.07;96005.88;4688049;30;20088;-62
2022/01/17 11:29:08;;;;;;;17.67;8.15;;;;;;;-0.85;71.58;96006.03;4698986;30;20137;-63
2022/01/17 11:31:34;;;;;;;19.50;7.60;;;;;;;-0.93;69.39;95999.50;4697685;30;20056;-61
2022/01/17 11:34:00;;;;;;;14.82;7.40;;;;;;;-1.09;69.79;95993.34;4700128;30;20056;-64
2022/01/17 11:36:27;;;;;;;14.77;7.07;;;;;;;-1.06;70.21;95989.47;4695875;30;20105;-63
2022/01/17 11:38:55;;;;;;;16.10;7.80;;;;;;;-0.93;70.08;95983.88;4681581;30;20455;-63
2022/01/17 11:41:34;;;;;;;17.45;8.38;;;;;;;-0.84;69.94;95982.41;4660182;30;20085;-61
2022/01/17 11:44:05;;;;;;;15.18;7.57;;;;;;;-0.87;68.71;95980.31;4647639;30;20542;-60
2022/01/17 11:46:34;;;;;;;14.70;7.20;;;;;;;-0.94;68.66;95972.72;4663573;30;20051;-60
2022/01/17 11:49:08;;;;;;;18.85;8.43;;;;;;;-0.96;70.10;95979.97;4700459;30;20058;-62
2022/01/17 11:51:42;;;;;;;11.75;6.63;;;;;;;-1.02;69.48;95975.75;4667328;30;20526;-58
2022/01/17 11:54:22;;;;;;;16.98;7.88;;;;;;;-1.11;69.66;95971.25;4697219;30;20049;-59
2022/01/17 11:56:54;;;;;;;15.20;8.20;;;;;;;-1.13;69.64;95974.09;4694890;30;20068;-61
2022/01/17 11:59:29;;;;;;;15.65;8.10;;;;;;;-1.10;70.29;95975.41;4697799;30;20101;-61
2022/01/17 12:02:10;;;;;;;14.07;7.72;;;;;;;-1.04;70.35;95969.22;4696940;30;20056;-62
2022/01/17 12:04:37;;;;;;;18.42;7.85;;;;;;;-0.93;69.57;95974.28;4697471;30;20054;-60